Time;durP1;ratioP1;P1;durP2;ratioP2;P2;SDS_P1;SDS_P2;PMS_P1;PMS_P2;Temp;Humidity;BMP_temperature;BMP_pressure;BME280_temperature;BME280_humidity;BME280_pressure;Samples;Min_cycle;Max_cycle;Signal;HPM_P1;HPM_P2
2021/12/08 00:01:27;;;;;;;14.43;8.00;;;0.40;99.90;;;;;;5081851;28;20788;-74
2021/12/08 00:03:53;;;;;;;13.45;7.43;;;0.30;99.90;;;;;;5073397;28;20115;-74
2021/12/08 00:06:20;;;;;;;12.48;7.38;;;0.30;99.90;;;;;;5071786;28;20032;-73
2021/12/08 00:08:59;;;;;;;13.77;7.85;;;0.30;99.90;;;;;;5073524;28;20032;-75
2021/12/08 00:14:10;;;;;;;15.57;7.70;;;0.40;99.90;;;;;;5094203;28;20051;-73
2021/12/08 00:16:39;;;;;;;15.38;8.23;;;0.30;99.90;;;;;;5079573;28;20064;-75
2021/12/08 00:19:04;;;;;;;18.88;8.23;;;0.30;99.90;;;;;;5072858;28;20492;-75
2021/12/08 00:21:30;;;;;;;17.08;8.05;;;0.40;99.90;;;;;;5084763;28;20070;-74
2021/12/08 00:23:56;;;;;;;16.33;8.93;;;0.30;99.90;;;;;;5092147;28;20478;-74
2021/12/08 00:26:22;;;;;;;17.73;9.05;;;0.30;99.90;;;;;;5083025;28;20085;-74
2021/12/08 00:28:54;;;;;;;18.58;8.68;;;0.40;99.90;;;;;;5090035;28;20032;-74
2021/12/08 00:31:20;;;;;;;13.93;7.68;;;0.30;99.90;;;;;;5083238;28;20421;-74
2021/12/08 00:33:46;;;;;;;15.75;8.38;;;0.30;99.90;;;;;;5071637;28;20115;-75
2021/12/08 00:36:14;;;;;;;15.60;7.80;;;0.30;99.90;;;;;;5072871;28;20112;-74
2021/12/08 00:38:40;;;;;;;15.65;7.93;;;0.30;99.90;;;;;;5071326;28;20632;-75
2021/12/08 00:41:06;;;;;;;14.85;9.05;;;0.30;99.90;;;;;;5079464;28;20141;-75
2021/12/08 00:43:32;;;;;;;15.63;7.88;;;0.30;99.90;;;;;;5091546;28;20436;-74
2021/12/08 00:45:58;;;;;;;17.17;9.00;;;0.30;99.90;;;;;;5092696;28;20062;-74
2021/12/08 00:48:24;;;;;;;13.65;7.63;;;0.30;99.90;;;;;;5092268;28;20848;-74
2021/12/08 00:50:50;;;;;;;16.40;8.70;;;0.30;99.90;;;;;;5086508;28;20064;-75
2021/12/08 00:53:16;;;;;;;15.23;8.30;;;0.30;99.90;;;;;;5072509;28;20257;-75
2021/12/08 00:55:42;;;;;;;15.82;8.38;;;0.30;99.90;;;;;;5072280;28;20472;-74
2021/12/08 00:58:08;;;;;;;19.13;8.97;;;0.30;99.90;;;;;;5072109;28;20035;-74
2021/12/08 01:00:40;;;;;;;18.30;9.90;;;0.30;99.90;;;;;;5074318;28;20043;-74
2021/12/08 01:03:07;;;;;;;17.20;9.52;;;0.20;99.90;;;;;;5092693;28;20032;-75
2021/12/08 01:05:35;;;;;;;;;;;0.30;99.90;;;;;;5089132;28;20111;-74
2021/12/08 01:08:01;;;;;;;18.48;8.73;;;0.20;99.90;;;;;;5070233;28;19908;-76
2021/12/08 01:10:28;;;;;;;18.67;9.35;;;0.20;99.90;;;;;;5074621;28;20044;-75
2021/12/08 01:12:55;;;;;;;19.85;9.25;;;0.20;99.90;;;;;;5090414;28;20519;-75
2021/12/08 01:15:22;;;;;;;;;;;0.20;99.90;;;;;;5091916;28;20046;-75
2021/12/08 01:17:48;;;;;;;20.27;8.30;;;0.20;99.90;;;;;;5090613;28;20286;-75
2021/12/08 01:20:15;;;;;;;17.93;9.50;;;0.30;99.90;;;;;;5089592;28;20028;-75
2021/12/08 01:22:43;;;;;;;19.42;9.57;;;0.30;99.90;;;;;;5070560;28;20403;-74
2021/12/08 01:25:09;;;;;;;17.80;9.07;;;0.30;99.90;;;;;;5070365;28;20024;-74
2021/12/08 01:27:35;;;;;;;19.05;9.55;;;0.30;99.90;;;;;;5077050;28;20478;-74
2021/12/08 01:30:01;;;;;;;18.80;9.68;;;0.30;99.90;;;;;;5090343;28;20044;-73
2021/12/08 01:32:27;;;;;;;19.05;9.48;;;0.20;99.90;;;;;;5071519;28;20494;-74
2021/12/08 01:34:53;;;;;;;16.35;8.85;;;0.20;99.90;;;;;;5071303;28;20040;-74
2021/12/08 01:37:20;;;;;;;17.23;8.23;;;0.20;99.90;;;;;;5069783;28;20032;-74
2021/12/08 01:39:46;;;;;;;18.30;9.05;;;0.20;99.90;;;;;;5069579;28;20048;-74
2021/12/08 01:42:17;;;;;;;18.13;9.23;;;0.30;99.90;;;;;;5069460;28;20471;-74
2021/12/08 01:47:34;;;;;;;18.00;8.93;;;0.30;99.90;;;;;;5071825;28;20404;-74
2021/12/08 01:50:00;;;;;;;16.53;9.27;;;0.30;99.90;;;;;;5069672;28;20040;-74
2021/12/08 01:52:26;;;;;;;18.57;8.93;;;0.30;99.90;;;;;;5069124;28;20032;-73
2021/12/08 01:54:52;;;;;;;;;;;0.20;99.90;;;;;;5071439;28;20036;-75
2021/12/08 01:57:18;;;;;;;17.35;9.23;;;0.20;99.90;;;;;;5070861;28;19958;-74
2021/12/08 01:59:43;;;;;;;16.53;8.57;;;0.20;99.90;;;;;;5070728;28;20048;-74
2021/12/08 02:02:09;;;;;;;18.37;9.60;;;0.20;99.90;;;;;;5070928;28;20104;-76
2021/12/08 02:04:36;;;;;;;21.10;9.87;;;0.10;99.90;;;;;;5070912;28;20028;-75
2021/12/08 02:07:02;;;;;;;19.60;9.40;;;0.20;99.90;;;;;;5070932;28;20020;-75
2021/12/08 02:09:28;;;;;;;21.17;10.57;;;0.20;99.90;;;;;;5069937;28;20031;-75
2021/12/08 02:11:56;;;;;;;20.70;9.98;;;0.20;99.90;;;;;;5086420;28;20124;-74
2021/12/08 02:14:23;;;;;;;18.95;9.57;;;0.20;99.90;;;;;;5089892;28;20123;-75
2021/12/08 02:16:55;;;;;;;20.17;9.88;;;0.20;99.90;;;;;;5075076;28;20033;-74
2021/12/08 02:19:22;;;;;;;19.08;9.63;;;0.20;99.90;;;;;;5069252;28;20593;-75
2021/12/08 02:21:52;;;;;;;19.58;10.00;;;0.20;99.90;;;;;;5070842;28;20379;-74
2021/12/08 02:24:19;;;;;;;17.85;9.57;;;0.20;99.90;;;;;;5068879;28;20493;-74
2021/12/08 02:26:50;;;;;;;19.50;9.63;;;0.20;99.90;;;;;;5070751;28;20430;-75
2021/12/08 02:29:25;;;;;;;19.80;10.05;;;0.10;99.90;;;;;;5070564;28;20479;-74
2021/12/08 02:48:00;;;;;;;21.00;10.25;;;0.20;99.90;;;;;;5070765;28;20448;-74
2021/12/08 02:50:32;;;;;;;19.45;10.13;;;0.20;99.90;;;;;;5068892;28;20410;-74
2021/12/08 02:53:00;;;;;;;19.23;10.25;;;0.20;99.90;;;;;;5070213;28;20029;-75
2021/12/08 02:55:30;;;;;;;21.77;10.30;;;0.20;99.90;;;;;;5071449;28;20364;-75
2021/12/08 02:57:58;;;;;;;23.63;10.35;;;0.20;99.90;;;;;;5090712;28;20479;-74
2021/12/08 03:00:27;;;;;;;20.77;9.88;;;0.20;99.90;;;;;;5085856;28;20066;-73
2021/12/08 03:02:57;;;;;;;20.90;9.93;;;0.20;99.90;;;;;;5070695;28;20028;-75
2021/12/08 03:05:23;;;;;;;20.20;10.05;;;0.20;99.90;;;;;;5070143;28;20025;-75
2021/12/08 03:07:50;;;;;;;23.23;11.25;;;0.20;99.90;;;;;;5070472;28;20032;-75
2021/12/08 03:10:20;;;;;;;20.52;10.30;;;0.20;99.90;;;;;;5068699;28;20140;-76
2021/12/08 03:12:46;;;;;;;24.52;11.63;;;0.20;99.90;;;;;;5069025;28;20035;-75
2021/12/08 03:15:13;;;;;;;22.65;10.43;;;0.20;99.90;;;;;;5070415;28;20037;-75
2021/12/08 03:17:39;;;;;;;19.73;10.85;;;0.20;99.90;;;;;;5070428;28;20108;-74
2021/12/08 03:20:09;;;;;;;24.00;11.27;;;0.30;99.90;;;;;;5070053;28;20365;-73
2021/12/08 03:22:40;;;;;;;21.73;11.45;;;0.30;99.90;;;;;;5068809;28;20032;-75
2021/12/08 03:25:09;;;;;;;23.80;10.63;;;0.30;99.90;;;;;;5068850;28;20036;-74
2021/12/08 03:27:43;;;;;;;19.75;10.00;;;0.30;99.90;;;;;;5088466;28;20024;-75
2021/12/08 03:30:20;;;;;;;36.60;11.15;;;0.20;99.90;;;;;;5088366;28;20123;-75
2021/12/08 03:32:46;;;;;;;24.95;10.88;;;0.20;99.90;;;;;;5068750;28;20510;-73
2021/12/08 03:35:16;;;;;;;27.63;11.30;;;0.30;99.90;;;;;;5070339;28;20028;-75
2021/12/08 03:37:47;;;;;;;22.98;11.95;;;0.20;99.90;;;;;;5070958;28;20036;-74
2021/12/08 03:40:22;;;;;;;24.13;11.50;;;0.30;99.90;;;;;;5072983;28;20154;-75
2021/12/08 03:42:51;;;;;;;22.77;11.32;;;0.20;99.90;;;;;;5074003;28;20024;-76
2021/12/08 03:45:30;;;;;;;25.77;11.68;;;0.20;99.90;;;;;;5073457;28;20028;-75
2021/12/08 03:48:06;;;;;;;24.23;11.35;;;0.20;99.90;;;;;;5072639;28;20032;-74
2021/12/08 03:50:36;;;;;;;24.80;11.27;;;0.20;99.90;;;;;;5071573;28;20365;-74
2021/12/08 03:53:09;;;;;;;20.23;9.48;;;0.30;99.90;;;;;;5072332;28;20044;-74
2021/12/08 03:55:35;;;;;;;24.17;11.52;;;0.30;99.90;;;;;;5077051;28;20039;-74
2021/12/08 03:58:00;;;;;;;21.60;11.40;;;0.30;99.90;;;;;;5094007;28;20036;-74
2021/12/08 04:00:29;;;;;;;21.97;11.60;;;0.30;99.90;;;;;;5088415;28;20681;-74
2021/12/08 04:02:57;;;;;;;25.75;12.23;;;0.30;99.90;;;;;;5073725;28;20036;-74
2021/12/08 04:05:39;;;;;;;23.55;11.15;;;0.30;99.90;;;;;;5071630;28;20522;-75
2021/12/08 04:08:14;;;;;;;23.83;11.82;;;0.30;99.90;;;;;;5073448;28;20024;-74
2021/12/08 04:10:40;;;;;;;24.98;11.50;;;0.20;99.90;;;;;;5077605;28;20035;-75
2021/12/08 04:13:06;;;;;;;23.08;10.80;;;0.30;99.90;;;;;;5092176;28;20040;-75
2021/12/08 04:15:32;;;;;;;24.63;11.57;;;0.30;99.90;;;;;;5088140;28;20498;-74
2021/12/08 04:17:58;;;;;;;25.83;11.80;;;0.30;99.90;;;;;;5071698;28;20707;-74
2021/12/08 04:20:39;;;;;;;23.83;10.43;;;0.30;99.90;;;;;;5072201;28;20430;-75
2021/12/08 04:23:07;;;;;;;25.35;11.57;;;0.30;99.90;;;;;;5071923;28;20044;-74
2021/12/08 04:25:35;;;;;;;22.55;11.02;;;0.30;99.90;;;;;;5071262;28;20055;-74
2021/12/08 04:28:06;;;;;;;20.40;10.75;;;0.30;99.90;;;;;;5082061;28;20060;-74
2021/12/08 04:30:43;;;;;;;22.45;10.90;;;0.40;99.90;;;;;;5088996;28;20036;-75
2021/12/08 04:33:09;;;;;;;23.95;10.82;;;0.30;99.90;;;;;;5073572;28;20415;-74
2021/12/08 04:35:37;;;;;;;25.98;11.20;;;0.30;99.90;;;;;;5075391;28;20116;-74
2021/12/08 04:38:07;;;;;;;21.52;10.48;;;0.30;99.90;;;;;;5091869;28;20406;-74
2021/12/08 04:41:01;;;;;;;22.38;11.27;;;0.30;99.90;;;;;;5086905;28;20125;-77
2021/12/08 04:43:34;;;;;;;19.98;9.57;;;0.30;99.90;;;;;;5073285;28;20029;-74
2021/12/08 04:51:41;;;;;;;22.83;10.15;;;0.40;99.90;;;;;;5072471;28;20056;-75
2021/12/08 05:03:01;;;;;;;23.33;10.43;;;0.30;99.90;;;;;;5072186;28;20031;-75
2021/12/08 05:05:47;;;;;;;20.92;10.27;;;0.30;99.90;;;;;;5074062;28;20086;-74
2021/12/08 05:08:16;;;;;;;20.55;10.00;;;0.30;99.90;;;;;;5092256;28;20110;-75
2021/12/08 05:10:49;;;;;;;20.92;9.82;;;0.40;99.90;;;;;;5087334;28;20029;-74
2021/12/08 05:13:19;;;;;;;20.95;10.02;;;0.30;99.90;;;;;;5072037;28;20399;-73
2021/12/08 05:15:52;;;;;;;19.92;10.02;;;0.30;99.90;;;;;;5070289;28;20029;-75
2021/12/08 05:18:36;;;;;;;22.02;10.05;;;0.40;99.90;;;;;;5071059;28;20035;-74
2021/12/08 05:21:08;;;;;;;21.15;9.73;;;0.40;99.90;;;;;;5071531;28;20123;-74
2021/12/08 05:23:36;;;;;;;19.55;9.30;;;0.40;99.90;;;;;;5071945;28;20021;-74
2021/12/08 05:26:08;;;;;;;18.73;9.40;;;0.30;99.90;;;;;;5071506;28;20035;-73
2021/12/08 05:28:34;;;;;;;19.80;9.52;;;0.40;99.90;;;;;;5086164;28;20104;-74
2021/12/08 05:31:10;;;;;;;18.30;9.00;;;0.40;99.90;;;;;;5084391;28;20099;-73
2021/12/08 05:33:39;;;;;;;19.02;10.15;;;0.40;99.90;;;;;;5072039;28;20024;-75
2021/12/08 05:36:05;;;;;;;22.15;9.63;;;0.40;99.90;;;;;;5071308;28;20029;-75
2021/12/08 05:38:31;;;;;;;21.48;10.05;;;0.40;99.90;;;;;;5071573;28;20117;-74
2021/12/08 05:41:14;;;;;;;17.42;9.23;;;0.40;99.90;;;;;;5071066;28;20470;-74
2021/12/08 05:43:40;;;;;;;20.40;9.18;;;0.40;99.90;;;;;;5071442;28;20033;-74
2021/12/08 05:46:07;;;;;;;21.15;9.20;;;0.40;99.90;;;;;;5069819;28;20033;-74
2021/12/08 05:48:34;;;;;;;20.05;9.98;;;0.40;99.90;;;;;;5069650;28;20028;-73
2021/12/08 05:51:10;;;;;;;20.13;9.23;;;0.40;99.90;;;;;;5070069;28;20077;-74
2021/12/08 05:53:38;;;;;;;16.37;9.03;;;0.40;99.90;;;;;;5070381;28;20128;-74
2021/12/08 05:56:06;;;;;;;17.65;9.05;;;0.40;99.90;;;;;;5070633;28;20078;-75
2021/12/08 05:58:33;;;;;;;18.65;8.85;;;0.40;99.90;;;;;;5071424;28;20504;-75
2021/12/08 06:01:43;;;;;;;16.42;8.80;;;0.40;99.90;;;;;;5070857;28;20429;-74
2021/12/08 06:04:11;;;;;;;15.20;8.10;;;0.40;99.90;;;;;;5063068;28;20045;-74
2021/12/08 06:06:38;;;;;;;18.83;9.00;;;0.40;99.90;;;;;;5083645;28;20408;-76
2021/12/08 06:09:08;;;;;;;16.73;8.25;;;0.40;99.90;;;;;;5091290;28;20085;-75
2021/12/08 06:11:35;;;;;;;16.88;7.75;;;0.50;99.90;;;;;;5078783;28;20146;-73
2021/12/08 06:14:01;;;;;;;;;;;0.40;99.90;;;;;;5071312;28;20116;-67
2021/12/08 06:16:32;;;;;;;15.10;7.82;;;0.50;99.90;;;;;;5070253;28;19912;-66
2021/12/08 06:18:58;;;;;;;17.02;8.75;;;0.50;99.90;;;;;;5070758;28;20043;-67
2021/12/08 06:21:27;;;;;;;16.73;8.07;;;0.60;99.90;;;;;;5070132;28;20018;-68
2021/12/08 06:23:55;;;;;;;16.02;7.25;;;0.60;99.90;;;;;;5072408;28;20040;-68
2021/12/08 06:26:26;;;;;;;16.15;8.77;;;0.60;99.90;;;;;;5080343;28;20031;-68
2021/12/08 06:28:55;;;;;;;15.02;7.40;;;0.70;99.90;;;;;;5090665;28;20111;-66
2021/12/08 06:31:23;;;;;;;14.32;7.60;;;0.60;99.90;;;;;;5082082;28;20021;-67
2021/12/08 06:33:49;;;;;;;13.98;6.93;;;0.60;99.90;;;;;;5077208;28;20035;-65
2021/12/08 06:36:20;;;;;;;15.07;7.32;;;0.70;99.90;;;;;;5082812;28;20402;-62
2021/12/08 06:38:46;;;;;;;14.25;6.95;;;0.80;99.90;;;;;;5071226;28;20048;-65
2021/12/08 06:41:27;;;;;;;12.77;7.65;;;0.80;99.90;;;;;;5072101;28;20043;-64
2021/12/08 06:43:59;;;;;;;11.30;6.75;;;0.80;99.90;;;;;;5081018;28;20024;-64
2021/12/08 06:46:25;;;;;;;12.70;6.43;;;0.80;99.90;;;;;;5070497;28;20043;-64
2021/12/08 06:48:55;;;;;;;15.60;6.82;;;0.80;99.90;;;;;;5086751;28;20039;-64
2021/12/08 06:51:34;;;;;;;12.18;6.82;;;0.80;99.90;;;;;;5076648;28;20024;-64
2021/12/08 06:54:16;;;;;;;17.70;8.65;;;0.80;99.90;;;;;;5081714;28;20036;-64
2021/12/08 06:56:48;;;;;;;12.88;6.43;;;0.80;99.90;;;;;;5075891;28;20031;-64
2021/12/08 06:59:21;;;;;;;13.27;5.95;;;0.80;99.90;;;;;;5079133;28;20054;-65
2021/12/08 07:02:08;;;;;;;14.38;6.50;;;0.80;99.90;;;;;;5079761;28;20024;-63
2021/12/08 07:05:10;;;;;;;11.13;6.03;;;0.80;99.90;;;;;;5070570;28;20063;-64
2021/12/08 07:07:37;;;;;;;12.18;5.82;;;0.80;99.90;;;;;;5070061;28;20774;-65
2021/12/08 07:10:30;;;;;;;11.73;5.82;;;0.80;99.90;;;;;;5069728;28;20050;-64
2021/12/08 07:13:10;;;;;;;11.27;4.97;;;0.80;99.90;;;;;;5073026;28;20044;-64
2021/12/08 07:15:57;;;;;;;13.30;6.10;;;0.80;99.90;;;;;;5073458;28;20051;-65
2021/12/08 07:18:53;;;;;;;13.90;6.40;;;0.80;99.90;;;;;;5081114;28;20039;-64
2021/12/08 07:21:24;;;;;;;12.15;5.45;;;0.90;99.90;;;;;;5088001;28;20425;-64
2021/12/08 07:24:18;;;;;;;9.70;5.18;;;0.80;99.90;;;;;;5073983;28;20359;-65
2021/12/08 07:26:46;;;;;;;9.60;5.25;;;0.80;99.90;;;;;;5065505;28;20086;-65
2021/12/08 07:29:14;;;;;;;9.65;5.00;;;0.80;99.90;;;;;;5078907;28;20032;-66
2021/12/08 07:31:52;;;;;;;12.32;5.45;;;0.80;99.90;;;;;;5088429;28;20028;-66
2021/12/08 07:34:20;;;;;;;10.35;5.40;;;0.80;99.90;;;;;;5081346;28;20036;-65
2021/12/08 07:36:54;;;;;;;13.25;5.38;;;0.80;99.90;;;;;;5075432;28;20066;-64
2021/12/08 07:39:27;;;;;;;10.30;5.20;;;0.80;99.90;;;;;;5092975;28;20048;-66
2021/12/08 07:42:00;;;;;;;10.82;5.05;;;0.80;99.90;;;;;;5076924;28;20017;-67
2021/12/08 07:44:26;;;;;;;9.45;4.85;;;0.90;99.90;;;;;;5081929;28;20035;-66
2021/12/08 07:47:05;;;;;;;10.32;4.57;;;0.80;99.90;;;;;;5072721;28;20016;-67
2021/12/08 07:49:44;;;;;;;9.73;5.03;;;0.90;99.90;;;;;;5077878;28;20390;-66
2021/12/08 07:52:18;;;;;;;10.55;5.43;;;0.90;99.90;;;;;;5085012;28;20031;-66
2021/12/08 07:54:44;;;;;;;15.13;5.70;;;0.80;99.90;;;;;;5089759;28;20044;-66
2021/12/08 07:57:16;;;;;;;;;;;0.90;99.90;;;;;;5076190;28;20117;-66
2021/12/08 07:59:44;;;;;;;8.02;4.32;;;0.90;99.90;;;;;;5084634;28;20414;-66
2021/12/08 08:02:10;;;;;;;8.18;3.95;;;0.90;99.90;;;;;;5071809;28;20089;-66
2021/12/08 08:04:40;;;;;;;10.85;4.97;;;0.90;99.90;;;;;;5080143;28;20051;-67
2021/12/08 08:07:07;;;;;;;10.00;4.50;;;0.90;99.90;;;;;;5078817;28;20115;-69
2021/12/08 08:09:39;;;;;;;8.90;5.00;;;0.90;99.90;;;;;;5079438;28;20383;-66
2021/12/08 08:26:42;;;;;;;10.05;5.05;;;1.10;99.90;;;;;;5086601;27;20899;-63
2021/12/08 08:29:08;;;;;;;11.73;4.85;;;1.10;99.90;;;;;;5079609;28;20032;-63
2021/12/08 08:31:41;;;;;;;7.57;3.70;;;1.00;99.90;;;;;;5080721;28;20020;-63
2021/12/08 08:34:09;;;;;;;7.88;4.00;;;0.90;99.90;;;;;;5082071;28;20055;-64
2021/12/08 08:36:44;;;;;;;7.78;4.10;;;0.90;99.90;;;;;;5079072;28;20810;-64
2021/12/08 08:39:15;;;;;;;8.15;3.42;;;0.90;99.90;;;;;;5077873;28;20386;-64
2021/12/08 08:42:00;;;;;;;7.32;3.65;;;0.80;99.90;;;;;;5080415;28;20024;-65
2021/12/08 08:44:38;;;;;;;9.75;4.80;;;0.80;99.90;;;;;;5080470;28;20043;-64
2021/12/08 08:47:09;;;;;;;8.80;4.18;;;0.80;99.90;;;;;;5081126;28;20494;-65
2021/12/08 08:49:36;;;;;;;9.25;4.18;;;0.90;99.90;;;;;;5084682;28;21960;-65
2021/12/08 08:52:11;;;;;;;8.27;4.22;;;0.90;99.90;;;;;;5079342;28;20489;-65
2021/12/08 08:54:41;;;;;;;9.23;4.30;;;0.90;99.90;;;;;;5070878;28;20028;-64
2021/12/08 08:57:19;;;;;;;10.10;4.70;;;0.90;99.90;;;;;;5075625;28;20098;-66
2021/12/08 08:59:56;;;;;;;6.88;3.85;;;0.80;99.90;;;;;;5081029;28;20039;-67
2021/12/08 09:02:24;;;;;;;;;;;0.80;99.90;;;;;;5086401;28;20562;-67
2021/12/08 09:05:00;;;;;;;7.30;3.42;;;0.80;99.90;;;;;;5075893;28;20340;-62
2021/12/08 09:07:34;;;;;;;7.72;3.75;;;0.80;99.90;;;;;;5070945;28;20017;-62
2021/12/08 09:10:05;;;;;;;6.45;3.47;;;0.80;99.90;;;;;;5076316;28;20040;-63
2021/12/08 09:12:36;;;;;;;8.10;3.35;;;0.80;99.90;;;;;;5076384;28;20176;-66
2021/12/08 09:15:12;;;;;;;6.90;3.60;;;0.80;99.90;;;;;;5075470;28;20036;-64
2021/12/08 09:17:50;;;;;;;10.43;3.70;;;0.80;99.90;;;;;;5068416;28;20039;-65
2021/12/08 09:20:32;;;;;;;7.97;4.05;;;0.80;99.90;;;;;;5070938;28;20439;-64
2021/12/08 09:23:07;;;;;;;10.38;3.45;;;0.80;99.90;;;;;;5076440;28;20102;-64
2021/12/08 09:25:42;;;;;;;6.88;3.25;;;0.80;99.90;;;;;;5073938;28;20072;-66
2021/12/08 09:28:14;;;;;;;7.35;3.65;;;0.80;99.90;;;;;;5057661;28;20674;-65
2021/12/08 09:30:55;;;;;;;7.93;3.80;;;0.80;99.90;;;;;;5060795;28;20040;-64
2021/12/08 09:33:26;;;;;;;8.60;3.60;;;0.80;99.90;;;;;;5063127;28;20036;-66
2021/12/08 09:35:59;;;;;;;8.48;3.80;;;0.90;99.90;;;;;;5066659;28;20131;-65
2021/12/08 09:38:25;;;;;;;9.27;3.83;;;0.90;99.90;;;;;;5061183;28;20104;-66
2021/12/08 09:40:57;;;;;;;7.93;3.87;;;0.90;99.90;;;;;;5059281;28;20123;-65
2021/12/08 09:43:55;;;;;;;7.70;3.58;;;0.90;99.90;;;;;;5059706;28;20426;-65
2021/12/08 09:46:38;;;;;;;8.55;3.58;;;0.90;99.90;;;;;;5051920;28;20127;-67
2021/12/08 09:49:06;;;;;;;8.25;3.75;;;0.90;99.90;;;;;;5060743;28;20021;-66
2021/12/08 09:51:33;;;;;;;9.35;4.70;;;0.80;99.90;;;;;;5060491;28;20116;-67
2021/12/08 09:53:59;;;;;;;9.60;4.28;;;0.80;99.90;;;;;;5055962;28;20017;-65
2021/12/08 09:56:26;;;;;;;9.25;4.45;;;0.80;99.90;;;;;;5058397;28;20029;-67
2021/12/08 09:58:53;;;;;;;7.88;3.58;;;0.90;99.90;;;;;;5062436;28;20033;-66
2021/12/08 10:01:21;;;;;;;9.52;4.40;;;0.80;99.90;;;;;;5058515;28;20030;-64
2021/12/08 10:19:31;;;;;;;9.18;4.20;;;0.80;99.90;;;;;;5112566;27;21071;-69
2021/12/08 10:21:58;;;;;;;8.13;3.78;;;1.10;99.90;;;;;;5101293;28;20416;-67
2021/12/08 10:24:29;;;;;;;8.88;4.95;;;1.10;99.90;;;;;;5098657;28;20335;-67
2021/12/08 10:27:06;;;;;;;8.50;4.28;;;1.10;99.90;;;;;;5100608;28;20081;-67
2021/12/08 10:29:35;;;;;;;10.77;4.05;;;1.00;99.90;;;;;;5098613;28;20028;-68
2021/12/08 10:32:03;;;;;;;7.63;4.22;;;1.00;99.90;;;;;;5095908;28;20044;-69
2021/12/08 10:34:53;;;;;;;7.88;3.80;;;1.00;99.90;;;;;;5099881;28;20394;-68
2021/12/08 10:37:20;;;;;;;8.75;4.13;;;1.10;99.90;;;;;;5102425;28;20032;-66
2021/12/08 10:39:54;;;;;;;9.70;4.60;;;1.00;99.90;;;;;;5102838;28;20047;-68
2021/12/08 10:42:25;;;;;;;10.85;5.05;;;1.00;99.90;;;;;;5102301;28;20035;-75
2021/12/08 10:45:11;;;;;;;8.52;4.45;;;1.00;99.90;;;;;;5099844;28;20020;-68
2021/12/08 10:47:55;;;;;;;7.45;4.13;;;1.20;99.90;;;;;;5094152;28;20062;-65
2021/12/08 10:56:04;;;;;;;9.88;4.40;;;0.90;99.90;;;;;;5095577;28;20042;-65
2021/12/08 10:58:35;;;;;;;7.55;4.65;;;1.00;99.90;;;;;;5099312;28;20046;-65
2021/12/08 11:01:16;;;;;;;7.35;3.78;;;1.00;99.90;;;;;;5115328;28;20038;-64
2021/12/08 11:03:46;;;;;;;7.43;3.63;;;1.00;99.90;;;;;;5097811;28;20463;-65
2021/12/08 11:06:15;;;;;;;9.68;4.95;;;0.90;99.90;;;;;;5095098;28;20385;-66
2021/12/08 11:08:46;;;;;;;10.00;4.78;;;0.90;99.90;;;;;;5101000;28;20036;-66
2021/12/08 11:11:20;;;;;;;7.97;3.90;;;0.90;99.90;;;;;;5097016;28;20079;-66
2021/12/08 11:14:06;;;;;;;8.65;3.95;;;0.90;99.90;;;;;;5094438;28;20566;-66
2021/12/08 11:16:36;;;;;;;8.68;4.10;;;0.80;99.90;;;;;;5095943;28;20627;-66
2021/12/08 11:19:05;;;;;;;9.02;4.22;;;0.80;99.90;;;;;;5082193;28;20079;-65
2021/12/08 11:21:40;;;;;;;10.25;4.47;;;0.80;99.90;;;;;;5081081;28;20029;-65
2021/12/08 11:24:19;;;;;;;8.20;4.72;;;0.90;99.90;;;;;;5079468;28;20039;-67
2021/12/08 11:26:48;;;;;;;9.43;4.55;;;0.90;99.90;;;;;;5081565;28;20028;-67
2021/12/08 11:29:24;;;;;;;11.10;4.75;;;0.80;99.90;;;;;;5078799;28;20032;-66
2021/12/08 11:32:02;;;;;;;7.57;3.83;;;0.80;99.90;;;;;;5082398;28;20064;-73
2021/12/08 11:50:21;;;;;;;10.40;5.43;;;0.80;99.90;;;;;;5079235;27;20447;-66
2021/12/08 11:52:52;;;;;;;9.55;5.07;;;1.00;99.90;;;;;;5073494;28;20028;-68
2021/12/08 11:55:20;;;;;;;11.27;5.18;;;1.00;99.90;;;;;;5070109;28;20020;-68
2021/12/08 11:57:51;;;;;;;9.57;4.53;;;0.90;99.90;;;;;;5069825;28;20025;-64
2021/12/08 12:00:23;;;;;;;9.88;5.07;;;1.00;99.90;;;;;;5068952;28;20115;-65
2021/12/08 12:02:56;;;;;;;9.20;5.00;;;0.90;99.90;;;;;;5069452;28;20037;-65
2021/12/08 12:05:30;;;;;;;9.85;5.05;;;1.00;99.90;;;;;;5076181;28;20029;-65
2021/12/08 12:07:56;;;;;;;11.60;6.13;;;1.10;99.90;;;;;;5074313;28;20033;-65
2021/12/08 12:10:25;;;;;;;9.65;4.90;;;1.00;99.90;;;;;;5073555;28;20028;-68
2021/12/08 12:12:51;;;;;;;11.93;5.90;;;1.00;99.90;;;;;;5080783;28;20032;-67
2021/12/08 12:15:20;;;;;;;8.05;4.93;;;0.90;99.90;;;;;;5086768;28;20039;-65
2021/12/08 12:17:49;;;;;;;10.23;4.97;;;0.90;99.90;;;;;;5079195;28;20056;-66
2021/12/08 12:20:26;;;;;;;8.18;4.63;;;0.90;99.90;;;;;;5077588;28;20162;-66
2021/12/08 12:23:03;;;;;;;10.85;4.63;;;0.80;99.90;;;;;;5075561;28;20041;-66
2021/12/08 12:25:32;;;;;;;9.70;5.10;;;0.80;99.90;;;;;;5079970;28;20059;-64
2021/12/08 12:28:19;;;;;;;10.25;5.38;;;0.90;99.90;;;;;;5078029;28;20040;-64
2021/12/08 12:31:17;;;;;;;9.73;4.50;;;0.90;99.90;;;;;;5076094;28;20120;-65
2021/12/08 12:33:44;;;;;;;10.23;4.38;;;1.00;99.90;;;;;;5079528;28;20478;-64
2021/12/08 12:36:22;;;;;;;9.35;5.65;;;1.00;99.90;;;;;;5074294;28;20035;-65
2021/12/08 12:38:49;;;;;;;11.02;5.15;;;1.00;99.90;;;;;;5075510;28;20043;-65
2021/12/08 12:41:26;;;;;;;12.82;5.22;;;1.00;99.90;;;;;;5080735;28;20074;-67
2021/12/08 12:44:22;;;;;;;11.38;5.43;;;0.90;99.90;;;;;;5079271;28;20028;-68
2021/12/08 12:47:11;;;;;;;11.18;5.25;;;0.90;99.90;;;;;;5076630;28;20254;-69
2021/12/08 12:49:39;;;;;;;11.75;5.60;;;0.90;99.90;;;;;;5072728;28;20045;-67
2021/12/08 12:52:08;;;;;;;106.80;50.55;;;0.90;99.90;;;;;;5058621;28;20104;-67
2021/12/08 12:54:34;;;;;;;20.20;9.50;;;0.90;99.90;;;;;;5058220;28;20036;-65
2021/12/08 12:57:03;;;;;;;10.20;5.80;;;0.90;99.90;;;;;;5059697;28;20052;-65
2021/12/08 12:59:51;;;;;;;10.77;5.70;;;0.90;99.90;;;;;;5061615;28;20106;-66
2021/12/08 13:02:32;;;;;;;12.02;5.05;;;1.00;99.90;;;;;;5070227;28;20028;-65
2021/12/08 13:05:10;;;;;;;12.05;6.07;;;0.90;99.90;;;;;;5062836;28;20048;-65
2021/12/08 13:07:42;;;;;;;10.23;5.43;;;1.00;99.90;;;;;;5064656;28;20032;-65
2021/12/08 13:10:15;;;;;;;11.13;6.07;;;0.90;99.90;;;;;;5058074;28;20559;-64
2021/12/08 13:12:44;;;;;;;13.88;5.78;;;0.90;99.90;;;;;;5061470;28;20040;-64
2021/12/08 13:15:20;;;;;;;14.07;6.80;;;0.90;99.90;;;;;;5062686;28;20055;-64
2021/12/08 13:18:09;;;;;;;10.43;5.50;;;0.90;99.90;;;;;;5061240;28;20471;-65
2021/12/08 13:20:44;;;;;;;11.60;6.15;;;0.80;99.90;;;;;;5059383;28;20017;-65
2021/12/08 13:23:18;;;;;;;14.10;6.57;;;0.80;99.90;;;;;;5060057;28;20032;-65
2021/12/08 13:28:24;;;;;;;13.13;5.80;;;0.80;99.90;;;;;;5055721;28;20047;-64
2021/12/08 13:30:56;;;;;;;11.32;6.18;;;0.80;99.90;;;;;;5053839;28;20028;-65
2021/12/08 13:33:29;;;;;;;10.13;6.03;;;0.80;99.90;;;;;;5061381;28;20032;-64
2021/12/08 13:35:57;;;;;;;12.38;6.70;;;0.80;99.90;;;;;;5061849;28;20029;-64
2021/12/08 13:38:24;;;;;;;15.68;6.85;;;0.90;99.90;;;;;;5061447;28;20060;-64
2021/12/08 13:40:54;;;;;;;10.77;5.53;;;1.00;99.90;;;;;;5060319;28;20782;-65
2021/12/08 13:43:32;;;;;;;14.45;6.35;;;0.90;99.90;;;;;;5055907;28;20040;-64
2021/12/08 13:45:58;;;;;;;10.90;6.38;;;1.00;99.90;;;;;;5058069;28;20029;-63
2021/12/08 13:48:25;;;;;;;14.18;6.35;;;0.90;99.90;;;;;;5061873;28;20071;-64
2021/12/08 13:50:51;;;;;;;13.68;7.68;;;0.90;99.90;;;;;;5057991;28;20065;-65
2021/12/08 13:53:17;;;;;;;13.07;6.32;;;1.00;99.90;;;;;;5061439;28;20112;-63
2021/12/08 13:55:49;;;;;;;20.10;7.47;;;0.90;99.90;;;;;;5057024;28;20419;-65
2021/12/08 13:58:19;;;;;;;14.35;7.05;;;0.90;99.90;;;;;;5055432;28;20273;-66
2021/12/08 14:00:54;;;;;;;13.85;7.28;;;1.00;99.90;;;;;;5058228;28;20434;-65
2021/12/08 14:03:33;;;;;;;14.65;7.78;;;1.00;99.90;;;;;;5055972;28;20033;-64
2021/12/08 14:06:00;;;;;;;15.63;8.30;;;1.00;99.90;;;;;;5057596;28;20063;-63
2021/12/08 14:08:31;;;;;;;19.65;7.57;;;1.00;99.90;;;;;;5060384;28;20032;-65
2021/12/08 14:11:10;;;;;;;13.25;7.00;;;0.90;99.90;;;;;;5063152;28;20420;-65
2021/12/08 14:13:38;;;;;;;14.65;7.57;;;0.90;99.90;;;;;;5057102;28;20866;-65
2021/12/08 14:16:09;;;;;;;13.32;7.22;;;0.90;99.90;;;;;;5057435;28;20036;-65
2021/12/08 14:18:36;;;;;;;13.80;6.53;;;0.90;99.90;;;;;;5056567;28;20452;-65
2021/12/08 14:21:11;;;;;;;13.88;7.45;;;0.90;99.90;;;;;;5059497;28;20463;-65
2021/12/08 14:23:49;;;;;;;16.13;7.32;;;0.90;99.90;;;;;;5057015;28;20044;-64
2021/12/08 14:26:24;;;;;;;14.68;8.13;;;1.00;99.90;;;;;;5055055;28;20044;-64
2021/12/08 14:28:54;;;;;;;17.40;7.10;;;1.00;99.90;;;;;;5055672;28;20552;-64
2021/12/08 14:31:38;;;;;;;17.85;7.90;;;1.00;99.90;;;;;;5057060;28;20729;-65
2021/12/08 14:34:25;;;;;;;18.55;7.68;;;1.00;99.90;;;;;;5061860;28;20502;-64
2021/12/08 14:37:14;;;;;;;15.25;7.25;;;1.00;99.90;;;;;;5056916;28;20714;-65
2021/12/08 14:39:48;;;;;;;16.80;7.10;;;1.00;99.90;;;;;;5054872;28;20035;-65
2021/12/08 14:42:16;;;;;;;15.10;6.90;;;1.00;99.90;;;;;;5057698;28;20040;-65